createdAt,value
2019-05-19T00:01:28.762Z,12.43
2019-05-19T00:03:55.246Z,10.47
2019-05-19T00:06:22.918Z,10.43
2019-05-19T00:08:52.992Z,10.10
2019-05-19T00:11:19.659Z,10.50
2019-05-19T00:14:18.406Z,10.67
2019-05-19T00:16:44.954Z,10.07
2019-05-19T00:19:25.553Z,10.97
2019-05-19T00:21:39.920Z,11.30
2019-05-19T00:24:06.422Z,10.23
2019-05-19T00:26:33.314Z,10.53
2019-05-19T00:29:00.492Z,10.73
2019-05-19T00:31:27.029Z,9.30
2019-05-19T00:33:53.535Z,10.40
2019-05-19T00:36:20.280Z,8.87
2019-05-19T00:38:46.758Z,9.90
2019-05-19T00:41:14.392Z,9.63
2019-05-19T00:43:40.868Z,9.37
2019-05-19T00:46:07.408Z,8.70
2019-05-19T00:48:34.215Z,10.60
2019-05-19T00:51:00.811Z,10.27
2019-05-19T00:53:27.363Z,9.70
2019-05-19T00:55:54.045Z,9.30
2019-05-19T00:58:20.814Z,8.83
2019-05-19T01:00:47.288Z,8.80
2019-05-19T01:03:14.116Z,9.20
2019-05-19T01:05:40.635Z,9.33
2019-05-19T01:08:07.291Z,9.17
2019-05-19T01:10:33.847Z,9.37
2019-05-19T01:13:00.618Z,8.80
2019-05-19T01:15:27.146Z,8.67
2019-05-19T01:17:53.692Z,8.40
2019-05-19T01:20:20.390Z,8.67
2019-05-19T01:22:47.279Z,8.10
2019-05-19T01:25:14.128Z,8.17
2019-05-19T01:27:40.736Z,7.97
2019-05-19T01:30:09.079Z,7.40
2019-05-19T01:32:35.707Z,8.10
2019-05-19T01:35:02.403Z,8.33
2019-05-19T01:37:28.944Z,8.13
2019-05-19T01:39:55.583Z,8.90
2019-05-19T01:42:22.181Z,8.13
2019-05-19T01:44:48.819Z,8.43
2019-05-19T01:47:15.428Z,9.67
2019-05-19T01:49:41.903Z,9.77
2019-05-19T01:52:09.775Z,10.23
2019-05-19T01:54:36.480Z,9.10
2019-05-19T01:57:03.012Z,8.30
2019-05-19T01:59:29.493Z,8.23
2019-05-19T02:01:56.057Z,8.33
2019-05-19T02:04:23.127Z,8.67
2019-05-19T02:06:49.773Z,8.27
2019-05-19T02:09:16.376Z,8.23
2019-05-19T02:11:43.125Z,8.47
2019-05-19T02:14:09.929Z,8.43
2019-05-19T02:16:36.439Z,8.77
2019-05-19T02:19:03.136Z,8.73
2019-05-19T02:21:29.872Z,9.23
2019-05-19T02:23:56.448Z,9.93
2019-05-19T02:26:22.954Z,10.13
2019-05-19T02:28:49.461Z,10.07
2019-05-19T02:31:15.989Z,8.97
2019-05-19T02:33:42.539Z,9.37
2019-05-19T02:36:09.066Z,8.83
2019-05-19T02:38:35.605Z,8.57
2019-05-19T02:41:04.045Z,7.50
2019-05-19T02:43:33.469Z,9.00
2019-05-19T02:46:00.187Z,9.30
2019-05-19T02:48:27.352Z,11.13
2019-05-19T02:50:54.563Z,10.00
2019-05-19T02:53:21.681Z,10.90
2019-05-19T02:55:48.858Z,10.70
2019-05-19T02:58:15.920Z,11.10
2019-05-19T03:00:54.115Z,9.73
2019-05-19T03:03:21.263Z,9.90
2019-05-19T03:05:48.144Z,10.27
2019-05-19T03:08:14.682Z,9.43
2019-05-19T03:10:50.654Z,9.90
2019-05-19T03:13:18.566Z,9.93
2019-05-19T03:15:45.333Z,11.13
2019-05-19T03:18:11.992Z,10.80
2019-05-19T03:20:38.601Z,10.20
2019-05-19T03:23:05.236Z,10.30
2019-05-19T03:25:32.094Z,11.00
2019-05-19T03:27:58.747Z,11.47
2019-05-19T03:30:32.149Z,10.57
2019-05-19T03:33:00.498Z,11.10
2019-05-19T03:35:28.107Z,12.60
2019-05-19T03:37:54.753Z,10.07
2019-05-19T03:40:21.609Z,11.13
2019-05-19T03:42:49.272Z,11.10
2019-05-19T03:45:20.764Z,10.70
2019-05-19T03:50:34.439Z,11.13
2019-05-19T03:53:02.027Z,10.53
2019-05-19T03:55:28.752Z,10.77
2019-05-19T03:57:55.426Z,9.93
2019-05-19T04:00:29.463Z,10.70
2019-05-19T04:03:00.527Z,9.93
2019-05-19T04:05:27.568Z,11.93
2019-05-19T04:07:54.112Z,10.80
2019-05-19T04:10:21.236Z,10.87
2019-05-19T04:12:48.266Z,10.20
2019-05-19T04:15:15.091Z,9.93
2019-05-19T04:17:44.691Z,10.00
2019-05-19T04:20:12.027Z,10.63
2019-05-19T04:22:39.156Z,10.03
2019-05-19T04:25:05.789Z,9.13
2019-05-19T04:27:33.390Z,9.33
2019-05-19T04:29:59.981Z,9.57
2019-05-19T04:32:37.031Z,9.87
2019-05-19T04:34:55.020Z,9.97
2019-05-19T04:37:21.747Z,9.73
2019-05-19T04:39:48.291Z,9.97
2019-05-19T04:42:14.995Z,10.27
2019-05-19T04:44:41.564Z,9.60
2019-05-19T04:47:08.125Z,9.53
2019-05-19T04:49:36.016Z,10.60
2019-05-19T04:52:12.180Z,10.20
2019-05-19T04:54:38.917Z,12.43
2019-05-19T04:57:05.517Z,11.37
2019-05-19T04:59:32.372Z,12.10
2019-05-19T05:01:59.075Z,11.73
2019-05-19T05:04:29.114Z,10.77
2019-05-19T05:06:54.217Z,11.23
2019-05-19T05:09:21.806Z,10.80
2019-05-19T05:11:48.474Z,10.43
2019-05-19T05:14:15.114Z,10.87
2019-05-19T05:16:41.707Z,10.40
2019-05-19T05:19:08.891Z,9.47
2019-05-19T05:21:35.461Z,9.83
2019-05-19T05:24:02.125Z,9.00
2019-05-19T05:26:29.284Z,8.60
2019-05-19T05:28:56.220Z,9.60
2019-05-19T05:31:22.780Z,8.73
2019-05-19T05:33:49.713Z,8.43
2019-05-19T05:36:16.677Z,8.97
2019-05-19T05:38:43.637Z,10.30
2019-05-19T05:41:10.419Z,8.97
2019-05-19T05:43:37.156Z,8.27
2019-05-19T05:46:03.907Z,7.67
2019-05-19T05:48:30.525Z,6.70
2019-05-19T05:50:57.230Z,8.20
2019-05-19T05:53:24.065Z,7.07
2019-05-19T05:55:50.861Z,7.20
2019-05-19T05:58:17.576Z,6.63
2019-05-19T06:00:44.534Z,6.77
2019-05-19T06:03:11.886Z,7.40
2019-05-19T06:05:38.850Z,7.43
2019-05-19T06:08:05.580Z,7.80
2019-05-19T06:10:32.347Z,7.83
2019-05-19T06:12:59.009Z,7.30
2019-05-19T06:18:17.710Z,9.23
2019-05-19T06:20:44.887Z,8.57
2019-05-19T06:23:14.427Z,8.93
2019-05-19T06:25:41.360Z,9.77
2019-05-19T06:28:08.222Z,13.50
2019-05-19T06:30:35.991Z,13.43
2019-05-19T06:33:03.434Z,13.57
2019-05-19T06:35:38.458Z,14.40
2019-05-19T06:38:05.458Z,14.40
2019-05-19T06:40:32.093Z,13.30
2019-05-19T06:42:58.849Z,14.00
2019-05-19T06:45:25.537Z,13.63
2019-05-19T06:47:52.220Z,13.40
2019-05-19T06:50:19.061Z,12.23
2019-05-19T06:52:45.565Z,11.50
2019-05-19T06:55:13.061Z,12.33
2019-05-19T06:57:39.799Z,11.90
2019-05-19T07:00:06.848Z,13.20
2019-05-19T07:02:33.549Z,13.83
2019-05-19T07:05:06.229Z,12.13
2019-05-19T07:07:32.824Z,13.30
2019-05-19T07:10:01.496Z,12.50
2019-05-19T07:12:28.067Z,13.35
2019-05-19T07:14:55.156Z,13.27
2019-05-19T07:17:21.787Z,13.63
2019-05-19T07:19:48.723Z,13.83
2019-05-19T07:22:15.412Z,13.32
2019-05-19T07:24:44.643Z,15.10
2019-05-19T07:27:12.363Z,15.40
2019-05-19T07:29:38.934Z,14.68
2019-05-19T07:32:05.838Z,14.63
2019-05-19T07:34:33.035Z,14.98
2019-05-19T07:37:00.187Z,14.30
2019-05-19T07:39:27.368Z,15.23
2019-05-19T07:41:55.298Z,15.72
2019-05-19T07:44:21.891Z,14.55
2019-05-19T07:46:52.049Z,13.72
2019-05-19T07:49:18.884Z,13.85
2019-05-19T07:51:45.528Z,13.80
2019-05-19T07:54:13.353Z,14.33
2019-05-19T07:56:40.222Z,13.87
2019-05-19T07:59:08.016Z,14.85
2019-05-19T08:01:34.754Z,14.90
2019-05-19T08:04:02.760Z,15.32
2019-05-19T08:06:29.820Z,15.83
2019-05-19T08:08:56.934Z,14.73
2019-05-19T08:11:23.739Z,14.33
2019-05-19T08:13:50.426Z,14.35
2019-05-19T08:16:17.569Z,14.65
2019-05-19T08:18:45.233Z,15.83
2019-05-19T08:21:14.041Z,14.85
2019-05-19T08:23:41.762Z,15.65
2019-05-19T08:26:11.846Z,14.65
2019-05-19T08:28:38.539Z,15.30
2019-05-19T08:31:05.273Z,15.48
2019-05-19T08:33:32.471Z,17.07
2019-05-19T08:36:03.372Z,15.70
2019-05-19T08:38:30.003Z,17.30
2019-05-19T08:40:56.647Z,17.20
2019-05-19T08:43:23.949Z,15.28
2019-05-19T08:45:50.633Z,16.40
2019-05-19T08:48:17.239Z,16.90
2019-05-19T08:50:44.070Z,16.07
2019-05-19T08:53:10.726Z,17.95
2019-05-19T08:55:37.288Z,16.93
2019-05-19T08:58:04.185Z,15.20
2019-05-19T09:00:34.948Z,16.80
2019-05-19T09:02:59.227Z,16.48
2019-05-19T09:05:25.844Z,16.50
2019-05-19T09:07:52.441Z,17.12
2019-05-19T09:10:19.479Z,17.90
2019-05-19T09:12:46.038Z,15.68
2019-05-19T09:15:13.045Z,16.60
2019-05-19T09:17:39.521Z,17.98
2019-05-19T09:20:07.701Z,17.55
2019-05-19T09:22:34.644Z,16.65
2019-05-19T09:25:01.840Z,17.95
2019-05-19T09:27:28.959Z,16.97
2019-05-19T09:29:55.475Z,17.30
2019-05-19T09:32:21.983Z,18.62
2019-05-19T09:34:48.602Z,17.87
2019-05-19T09:37:15.116Z,18.40
2019-05-19T09:39:41.649Z,18.75
2019-05-19T09:42:08.377Z,18.32
2019-05-19T09:44:34.942Z,18.75
2019-05-19T09:47:02.561Z,19.65
2019-05-19T09:49:32.387Z,18.85
2019-05-19T09:51:59.179Z,19.60
2019-05-19T09:54:26.261Z,19.07
2019-05-19T09:56:52.798Z,18.65
2019-05-19T09:59:24.142Z,18.40
2019-05-19T10:01:50.896Z,18.60
2019-05-19T10:04:17.611Z,18.40
2019-05-19T10:06:44.223Z,16.65
2019-05-19T10:09:14.853Z,19.32
2019-05-19T10:12:00.230Z,17.60
2019-05-19T10:14:26.926Z,19.20
2019-05-19T10:18:11.631Z,19.60
2019-05-19T10:20:39.078Z,18.55
2019-05-19T10:23:05.612Z,20.37
2019-05-19T10:25:32.114Z,19.73
2019-05-19T10:27:58.622Z,21.33
2019-05-19T10:30:25.489Z,19.65
2019-05-19T10:32:52.141Z,21.05
2019-05-19T10:35:18.701Z,20.97
2019-05-19T10:37:45.709Z,21.57
2019-05-19T10:40:12.896Z,19.23
2019-05-19T10:42:39.433Z,20.15
2019-05-19T10:45:06.561Z,19.82
2019-05-19T10:47:33.436Z,18.25
2019-05-19T10:50:01.772Z,16.60
2019-05-19T10:52:28.837Z,14.95
2019-05-19T10:54:56.542Z,18.82
2019-05-19T10:57:23.121Z,15.00
2019-05-19T10:59:49.948Z,17.87
2019-05-19T11:02:17.775Z,20.08
2019-05-19T11:04:44.289Z,16.97
2019-05-19T11:07:10.810Z,16.12
2019-05-19T11:09:37.644Z,16.12
2019-05-19T11:12:04.530Z,18.32
2019-05-19T11:14:31.354Z,17.73
2019-05-19T11:16:59.188Z,15.43
2019-05-19T11:19:25.667Z,14.80
2019-05-19T11:21:52.387Z,15.53
2019-05-19T11:24:18.924Z,13.85
2019-05-19T11:26:45.586Z,15.78
2019-05-19T11:29:12.313Z,14.70
2019-05-19T11:31:38.911Z,14.30
2019-05-19T11:34:05.561Z,15.25
2019-05-19T11:36:32.204Z,13.48
2019-05-19T11:39:02.337Z,15.00
2019-05-19T11:41:29.034Z,14.80
2019-05-19T11:43:55.582Z,13.53
2019-05-19T11:46:23.497Z,15.93
2019-05-19T11:48:50.154Z,14.98
2019-05-19T11:51:16.787Z,14.50
2019-05-19T11:53:43.578Z,14.90
2019-05-19T11:56:11.519Z,14.53
2019-05-19T11:58:38.346Z,14.40
2019-05-19T12:01:04.851Z,13.45
2019-05-19T12:03:33.421Z,13.62
2019-05-19T12:05:59.983Z,13.35
2019-05-19T12:08:26.560Z,13.10
2019-05-19T12:10:53.148Z,12.63
2019-05-19T12:13:19.929Z,12.78
2019-05-19T12:15:46.506Z,13.30
2019-05-19T12:18:13.157Z,13.05
2019-05-19T12:20:39.687Z,13.75
2019-05-19T12:23:06.509Z,13.20
2019-05-19T12:25:33.118Z,12.60
2019-05-19T12:28:00.070Z,13.43
2019-05-19T12:30:26.679Z,14.25
2019-05-19T12:32:53.238Z,13.08
2019-05-19T12:35:21.767Z,12.70
2019-05-19T12:37:48.457Z,13.90
2019-05-19T12:40:15.514Z,12.07
2019-05-19T12:42:42.078Z,11.60
2019-05-19T12:45:09.998Z,12.70
2019-05-19T12:47:36.640Z,12.85
2019-05-19T12:50:03.749Z,12.07
2019-05-19T12:52:30.622Z,14.53
2019-05-19T12:54:58.835Z,13.40
2019-05-19T12:57:26.379Z,12.50
2019-05-19T12:59:53.298Z,12.00
2019-05-19T13:02:19.809Z,11.78
2019-05-19T13:05:03.708Z,10.40
2019-05-19T13:07:15.015Z,11.30
2019-05-19T13:09:41.528Z,10.98
2019-05-19T13:12:08.082Z,9.65
2019-05-19T13:14:34.829Z,10.30
2019-05-19T13:17:04.469Z,10.35
2019-05-19T13:19:31.065Z,9.00
2019-05-19T13:21:57.589Z,9.10
2019-05-19T13:24:24.291Z,7.95
2019-05-19T13:26:56.691Z,8.05
2019-05-19T13:29:19.156Z,8.60
2019-05-19T13:31:45.686Z,8.85
2019-05-19T13:34:12.318Z,9.33
2019-05-19T13:36:40.368Z,8.53
2019-05-19T13:39:07.262Z,8.80
2019-05-19T13:41:34.570Z,9.88
2019-05-19T13:44:01.670Z,9.28
2019-05-19T13:46:39.220Z,8.13
2019-05-19T13:49:06.572Z,9.40
2019-05-19T13:51:54.980Z,9.30
2019-05-19T13:54:21.649Z,8.48
2019-05-19T13:56:48.124Z,9.65
2019-05-19T13:59:15.147Z,8.73
2019-05-19T14:01:41.690Z,8.30
2019-05-19T14:04:08.234Z,9.05
2019-05-19T14:07:01.039Z,8.90
2019-05-19T14:09:28.531Z,9.28
2019-05-19T14:11:55.585Z,8.78
2019-05-19T14:14:22.190Z,8.47
2019-05-19T14:16:49.102Z,8.23
2019-05-19T14:19:15.855Z,7.93
2019-05-19T14:21:42.648Z,8.15
2019-05-19T14:24:09.176Z,8.03
2019-05-19T14:26:35.733Z,8.10
2019-05-19T14:29:02.590Z,8.58
2019-05-19T14:31:29.891Z,8.63
2019-05-19T14:33:56.721Z,10.07
2019-05-19T14:36:23.755Z,12.70
2019-05-19T14:39:51.305Z,10.67
2019-05-19T14:42:36.720Z,12.00
2019-05-19T14:45:06.692Z,11.03
2019-05-19T14:47:33.658Z,10.00
2019-05-19T14:50:02.076Z,10.33
2019-05-19T14:52:28.620Z,9.67
2019-05-19T14:54:55.313Z,9.27
2019-05-19T14:57:24.640Z,9.03
2019-05-19T14:59:53.173Z,9.90
2019-05-19T15:02:21.222Z,9.30
2019-05-19T15:04:47.995Z,7.77
2019-05-19T15:07:14.684Z,8.67
2019-05-19T15:09:41.477Z,8.10
2019-05-19T15:12:08.254Z,8.50
2019-05-19T15:14:35.264Z,8.97
2019-05-19T15:17:02.509Z,8.57
2019-05-19T15:19:29.482Z,8.00
2019-05-19T15:21:56.215Z,8.37
2019-05-19T15:24:22.944Z,7.83
2019-05-19T15:26:49.507Z,8.70
2019-05-19T15:29:16.052Z,8.73
2019-05-19T15:31:42.589Z,8.30
2019-05-19T15:34:09.246Z,8.50
2019-05-19T15:36:36.281Z,9.00
2019-05-19T15:39:04.239Z,8.43
2019-05-19T15:41:30.918Z,9.30
2019-05-19T15:43:57.432Z,7.80
2019-05-19T15:46:24.085Z,9.17
2019-05-19T15:48:50.951Z,8.43
2019-05-19T15:51:27.852Z,7.90
2019-05-19T15:53:47.714Z,9.33
2019-05-19T15:56:15.338Z,8.20
2019-05-19T15:58:41.870Z,8.27
2019-05-19T16:01:09.827Z,9.77
2019-05-19T16:03:37.343Z,8.50
2019-05-19T16:06:05.458Z,8.47
2019-05-19T16:08:32.344Z,9.20
2019-05-19T16:10:58.850Z,7.87
2019-05-19T16:13:25.706Z,8.20
2019-05-19T16:15:52.303Z,8.73
2019-05-19T16:18:18.943Z,9.83
2019-05-19T16:20:45.767Z,8.40
2019-05-19T16:23:12.269Z,9.10
2019-05-19T16:25:38.852Z,9.73
2019-05-19T16:28:05.445Z,9.87
2019-05-19T16:30:32.086Z,9.50
2019-05-19T16:32:58.769Z,8.77
2019-05-19T16:35:25.764Z,9.43
2019-05-19T16:37:53.001Z,9.00
2019-05-19T16:40:20.883Z,7.67
2019-05-19T16:42:50.459Z,9.07
2019-05-19T16:45:17.282Z,8.93
2019-05-19T16:47:47.961Z,9.57
2019-05-19T16:50:15.543Z,9.60
2019-05-19T16:52:43.090Z,9.53
2019-05-19T16:55:24.037Z,9.80
2019-05-19T16:57:50.701Z,9.37
2019-05-19T17:00:18.383Z,8.27
2019-05-19T17:02:45.964Z,7.60
2019-05-19T17:05:13.004Z,8.27
2019-05-19T17:07:39.713Z,7.83
2019-05-19T17:10:06.737Z,7.57
2019-05-19T17:12:34.566Z,7.80
2019-05-19T17:15:01.224Z,7.97
2019-05-19T17:17:28.468Z,7.37
2019-05-19T17:19:55.951Z,7.13
2019-05-19T17:22:23.063Z,8.00
2019-05-19T17:24:49.714Z,7.97
2019-05-19T17:27:17.370Z,7.43
2019-05-19T17:29:44.940Z,7.90
2019-05-19T17:32:15.526Z,6.97
2019-05-19T17:34:43.306Z,7.33
2019-05-19T17:37:11.286Z,7.60
2019-05-19T17:39:41.885Z,6.80
2019-05-19T17:42:09.321Z,6.37
2019-05-19T17:44:38.417Z,6.70
2019-05-19T17:47:05.679Z,7.07
2019-05-19T17:49:33.890Z,7.60
2019-05-19T17:52:07.668Z,7.97
2019-05-19T17:54:36.312Z,7.33
2019-05-19T17:57:03.018Z,5.77
2019-05-19T17:59:31.898Z,5.73
2019-05-19T18:02:00.247Z,6.13
2019-05-19T18:04:27.974Z,5.47
2019-05-19T18:06:56.903Z,5.00
2019-05-19T18:09:25.047Z,5.47
2019-05-19T18:11:53.756Z,4.90
2019-05-19T18:14:21.613Z,5.03
2019-05-19T18:16:49.329Z,5.70
2019-05-19T18:19:18.886Z,4.60
2019-05-19T18:21:47.209Z,5.43
2019-05-19T18:24:17.073Z,5.53
2019-05-19T18:26:44.537Z,4.90
2019-05-19T18:29:13.025Z,4.87
2019-05-19T18:31:45.708Z,4.90
2019-05-19T18:34:22.004Z,5.80
2019-05-19T18:36:49.199Z,4.70
2019-05-19T18:39:29.409Z,4.60
2019-05-19T18:42:11.333Z,4.83
2019-05-19T18:44:38.502Z,4.03
2019-05-19T18:47:13.899Z,4.37
2019-05-19T18:49:43.682Z,4.17
2019-05-19T18:52:12.089Z,4.40
2019-05-19T18:54:40.185Z,4.60
2019-05-19T18:57:10.110Z,4.50
2019-05-19T18:59:47.499Z,3.77
2019-05-19T19:02:14.827Z,3.60
2019-05-19T19:04:46.426Z,3.97
2019-05-19T19:07:19.831Z,3.77
2019-05-19T19:09:49.507Z,3.97
2019-05-19T19:12:16.160Z,4.67
2019-05-19T19:14:49.361Z,4.30
2019-05-19T19:17:16.286Z,4.07
2019-05-19T19:19:44.125Z,4.20
2019-05-19T19:22:16.499Z,4.10
2019-05-19T19:24:45.083Z,4.07
2019-05-19T19:27:14.036Z,4.20
2019-05-19T19:29:44.981Z,4.47
2019-05-19T19:32:13.329Z,4.37
2019-05-19T19:34:42.226Z,4.80
2019-05-19T19:37:12.214Z,5.60
2019-05-19T19:39:42.341Z,6.40
2019-05-19T19:42:10.884Z,6.07
2019-05-19T19:44:41.220Z,5.77
2019-05-19T19:47:09.290Z,6.13
2019-05-19T19:49:36.115Z,6.70
2019-05-19T19:52:06.219Z,6.70
2019-05-19T19:54:43.878Z,6.50
2019-05-19T19:57:12.872Z,6.27
2019-05-19T19:59:40.806Z,5.90
2019-05-19T20:02:07.554Z,5.83
2019-05-19T20:04:34.294Z,5.27
2019-05-19T20:07:00.791Z,5.07
2019-05-19T20:09:27.371Z,5.30
2019-05-19T20:11:54.562Z,5.30
2019-05-19T20:14:21.214Z,5.33
2019-05-19T20:16:47.867Z,4.63
2019-05-19T20:19:14.403Z,4.50
2019-05-19T20:21:40.910Z,4.43
2019-05-19T20:24:07.598Z,4.13
2019-05-19T20:26:34.436Z,3.00
2019-05-19T20:29:00.974Z,3.70
2019-05-19T20:31:31.381Z,3.80
2019-05-19T20:33:57.285Z,4.17
2019-05-19T20:36:23.855Z,3.63
2019-05-19T20:38:50.776Z,3.83
2019-05-19T20:41:17.459Z,3.53
2019-05-19T20:43:43.976Z,3.70
2019-05-19T20:46:10.501Z,3.30
2019-05-19T20:48:37.431Z,3.20
2019-05-19T20:51:12.784Z,3.43
2019-05-19T20:53:41.633Z,3.60
2019-05-19T20:56:09.160Z,3.40
2019-05-19T20:58:36.938Z,3.20
2019-05-19T21:01:07.945Z,3.60
2019-05-19T21:03:34.465Z,3.53
2019-05-19T21:06:01.550Z,3.57
2019-05-19T21:08:28.187Z,3.13
2019-05-19T21:10:55.850Z,3.67
2019-05-19T21:13:23.437Z,3.17
2019-05-19T21:15:49.992Z,3.47
2019-05-19T21:18:16.795Z,3.50
2019-05-19T21:20:44.448Z,3.77
2019-05-19T21:23:11.258Z,4.10
2019-05-19T21:25:37.788Z,3.87
2019-05-19T21:28:04.271Z,3.03
2019-05-19T21:30:31.157Z,3.67
2019-05-19T21:32:57.649Z,4.23
2019-05-19T21:35:24.327Z,3.47
2019-05-19T21:37:50.871Z,3.90
2019-05-19T21:40:17.772Z,4.00
2019-05-19T21:42:44.619Z,4.70
2019-05-19T21:45:11.272Z,3.53
2019-05-19T21:47:39.060Z,4.07
2019-05-19T21:50:06.949Z,4.27
2019-05-19T21:52:33.553Z,3.87
2019-05-19T21:55:00.040Z,4.60
2019-05-19T21:57:26.549Z,4.10
2019-05-19T21:59:53.226Z,3.97
2019-05-19T22:02:19.689Z,4.43
2019-05-19T22:04:47.363Z,3.90
2019-05-19T22:07:22.190Z,4.20
2019-05-19T22:09:48.775Z,4.23
2019-05-19T22:12:15.266Z,3.87
2019-05-19T22:14:42.250Z,4.47
2019-05-19T22:17:08.979Z,4.10
2019-05-19T22:19:35.684Z,4.40
2019-05-19T22:22:02.297Z,4.43
2019-05-19T22:24:29.019Z,4.63
2019-05-19T22:26:55.998Z,4.53
2019-05-19T22:29:22.659Z,4.93
2019-05-19T22:31:49.135Z,4.80
2019-05-19T22:34:15.628Z,4.47
2019-05-19T22:36:42.201Z,4.30
2019-05-19T22:39:09.853Z,4.17
2019-05-19T22:41:36.356Z,4.30
2019-05-19T22:44:02.929Z,4.27
2019-05-19T22:46:29.551Z,4.10
2019-05-19T22:48:56.166Z,5.37
2019-05-19T22:51:22.943Z,4.67
2019-05-19T22:53:49.468Z,4.27
2019-05-19T22:56:17.188Z,4.90
2019-05-19T22:58:43.662Z,4.63
2019-05-19T23:01:10.132Z,4.13
2019-05-19T23:03:36.692Z,4.50
2019-05-19T23:06:03.324Z,4.67
2019-05-19T23:08:29.837Z,4.43
2019-05-19T23:10:56.291Z,4.23
2019-05-19T23:13:22.906Z,4.93
2019-05-19T23:15:49.468Z,4.07
2019-05-19T23:18:15.978Z,4.47
2019-05-19T23:20:42.461Z,4.80
2019-05-19T23:23:09.040Z,4.67
2019-05-19T23:25:35.761Z,4.53
2019-05-19T23:28:02.634Z,4.03
2019-05-19T23:30:29.146Z,4.53
2019-05-19T23:32:55.795Z,5.37
2019-05-19T23:35:22.478Z,4.20
2019-05-19T23:37:48.990Z,4.63
2019-05-19T23:40:15.518Z,4.90
2019-05-19T23:42:42.015Z,4.47
2019-05-19T23:45:08.678Z,4.87
2019-05-19T23:47:35.326Z,4.43
2019-05-19T23:50:01.918Z,4.70
2019-05-19T23:52:28.322Z,5.17
2019-05-19T23:54:54.862Z,4.70
2019-05-19T23:57:22.471Z,5.10
2019-05-19T23:59:48.980Z,4.27
